Terminal Aerodrome Forecast
Issued by NWS Portland, ME

Current Version | Previous Version | Text Only | Print | Product List | Glossary On
Versions: 1 2 3 4 5 6 7 8 9 10 11 12 13 14 15 16 17 18 19
000
FTUS41 KGYX 270325 AAA
TAFCON
TAF AMD
KCON 270325Z 2703/2724 04010G16KT P6SM -SHSN SCT025 OVC090
     FM270400 02015G25KT 1SM -SN SCT007 OVC025
     FM270600 36020G32KT 1/2SM SN OVC005
     FM270900 36025G39KT 1/4SM +SN BLSN VV002
     FM271200 35030G45KT 1/4SM +SN BLSN VV001
     FM271800 35025G35KT 1SM -SN BLSN OVC003=

USA.gov is the U.S. government's official web portal to all federal, state and local government web resources and services.